Aviation Digital Data Service (ADDS)

Output produced by METARs form (1051 UTC 17 June 2019)
found at http://www.aviationweather.gov/metar/data/
 
Forecast for: UTSK (KARSHI KHANABAD , UZ)
Text: TAF UTSK 170853Z 1710/1719 34010KT CAVOK
Forecast period: 1000 to 1900 UTC 17 June 2019
Forecast type: FROM: standard forecast or significant change
Winds: from the NNW (340 degrees) at 12 MPH (10 knots; 5.1 m/s)
Visibility: 6 or more miles 10+ km)
Ceiling: unknown
Clouds: missing
Weather: NSW  (no significant weather)